createdAt,value
2018-05-24T00:03:59.495Z,16.00
2018-05-24T00:09:01.263Z,15.90
2018-05-24T00:14:03.043Z,15.90
2018-05-24T00:19:04.845Z,16.00
2018-05-24T00:24:05.867Z,15.90
2018-05-24T00:29:06.889Z,15.70
2018-05-24T00:34:07.898Z,15.50
2018-05-24T00:39:09.638Z,15.60
2018-05-24T00:44:10.629Z,15.50
2018-05-24T00:49:12.392Z,15.40
2018-05-24T00:54:14.150Z,15.50
2018-05-24T00:59:15.150Z,15.40
2018-05-24T01:04:16.157Z,15.40
2018-05-24T01:09:17.167Z,15.40
2018-05-24T01:14:18.166Z,15.30
2018-05-24T01:19:19.166Z,15.30
2018-05-24T01:24:20.942Z,15.20
2018-05-24T01:29:22.701Z,15.20
2018-05-24T01:34:23.714Z,15.20
2018-05-24T01:39:24.726Z,15.00
2018-05-24T01:44:26.491Z,15.00
2018-05-24T01:49:27.505Z,15.00
2018-05-24T01:54:28.510Z,14.90
2018-05-24T01:59:30.278Z,14.90
2018-05-24T02:04:31.307Z,14.90
2018-05-24T02:09:32.330Z,14.90
2018-05-24T02:14:33.346Z,14.90
2018-05-24T02:19:34.353Z,14.80
2018-05-24T02:24:35.378Z,14.80
2018-05-24T02:29:36.395Z,14.80
2018-05-24T02:34:37.435Z,14.70
2018-05-24T02:39:38.459Z,14.80
2018-05-24T02:44:40.226Z,14.80
2018-05-24T02:49:41.235Z,14.80
2018-05-24T02:54:42.255Z,14.90
2018-05-24T02:59:44.040Z,14.80
2018-05-24T03:04:45.887Z,14.80
2018-05-24T03:09:46.919Z,14.80
2018-05-24T03:14:47.934Z,14.80
2018-05-24T03:19:48.942Z,14.80
2018-05-24T03:24:49.974Z,15.00
2018-05-24T03:29:50.998Z,15.00
2018-05-24T03:34:52.762Z,15.00
2018-05-24T03:39:56.436Z,15.00
2018-05-24T03:44:57.437Z,15.10
2018-05-24T03:49:58.467Z,15.00
2018-05-24T03:54:59.483Z,14.90
2018-05-24T04:00:12.763Z,14.90
2018-05-24T04:05:13.779Z,15.00
2018-05-24T04:10:14.791Z,15.00
2018-05-24T04:15:15.796Z,15.10
2018-05-24T04:20:17.565Z,15.20
2018-05-24T04:25:19.356Z,15.20
2018-05-24T04:30:20.372Z,15.10
2018-05-24T04:35:22.150Z,15.60
2018-05-24T04:40:23.161Z,15.50
2018-05-24T04:45:24.188Z,15.90
2018-05-24T04:50:25.954Z,16.50
2018-05-24T04:55:27.706Z,17.00
2018-05-24T05:00:28.733Z,17.00
2018-05-24T05:05:29.737Z,17.00
2018-05-24T05:10:30.754Z,16.50
2018-05-24T05:15:31.765Z,16.30
2018-05-24T05:20:33.535Z,16.10
2018-05-24T05:25:34.545Z,16.10
2018-05-24T05:30:35.628Z,16.10
2018-05-24T05:35:37.333Z,16.20
2018-05-24T05:40:39.098Z,16.20
2018-05-24T05:45:40.114Z,16.10
2018-05-24T05:50:41.148Z,16.20
2018-05-24T05:55:42.178Z,16.20
2018-05-24T06:00:43.935Z,16.40
2018-05-24T06:05:44.958Z,16.40
2018-05-24T06:10:45.995Z,16.60
2018-05-24T06:15:47.025Z,16.60
2018-05-24T06:20:48.030Z,16.60
2018-05-24T06:25:49.062Z,16.60
2018-05-24T06:30:50.902Z,16.70
2018-05-24T06:35:52.951Z,16.90
2018-05-24T06:40:53.957Z,17.10
2018-05-24T06:45:55.710Z,17.60
2018-05-24T06:50:56.737Z,17.60
2018-05-24T06:55:57.765Z,18.00
2018-05-24T07:00:59.527Z,18.60
2018-05-24T07:06:01.371Z,18.60
2018-05-24T07:11:02.325Z,18.60
2018-05-24T07:16:03.349Z,18.90
2018-05-24T07:21:04.430Z,19.20
2018-05-24T07:26:05.443Z,19.70
2018-05-24T07:31:07.190Z,19.70
2018-05-24T07:36:08.205Z,19.60
2018-05-24T07:41:09.210Z,19.60
2018-05-24T07:46:10.222Z,20.00
2018-05-24T07:51:11.235Z,20.00
2018-05-24T07:56:12.239Z,20.30
2018-05-24T08:01:13.250Z,21.00
2018-05-24T08:06:14.258Z,21.00
2018-05-24T08:11:15.284Z,20.90
2018-05-24T08:16:16.326Z,20.70
2018-05-24T08:21:17.358Z,20.90
2018-05-24T08:26:18.398Z,21.00
2018-05-24T08:31:19.417Z,20.80
2018-05-24T08:36:21.196Z,21.30
2018-05-24T08:41:22.978Z,21.00
2018-05-24T08:46:23.997Z,21.00
2018-05-24T08:51:25.023Z,20.90
2018-05-24T08:56:26.048Z,21.30
2018-05-24T09:01:27.834Z,21.60
2018-05-24T09:06:29.573Z,21.50
2018-05-24T09:11:31.813Z,21.50
2018-05-24T09:16:34.126Z,21.30
2018-05-24T09:21:35.163Z,21.20
2018-05-24T09:26:36.179Z,21.10
2018-05-24T09:31:37.938Z,21.00
2018-05-24T09:36:38.947Z,21.00
2018-05-24T09:41:39.954Z,20.90
2018-05-24T09:46:41.705Z,20.90
2018-05-24T09:51:42.715Z,20.90
2018-05-24T09:56:44.458Z,21.00
2018-05-24T10:01:45.471Z,20.90
2018-05-24T10:06:46.474Z,20.80
2018-05-24T10:11:47.489Z,20.70
2018-05-24T10:16:48.513Z,21.00
2018-05-24T10:21:50.276Z,21.60
2018-05-24T10:26:51.295Z,21.60
2018-05-24T10:31:52.309Z,22.00
2018-05-24T10:36:53.314Z,22.20
2018-05-24T10:41:54.338Z,21.60
2018-05-24T10:46:55.354Z,21.60
2018-05-24T10:51:56.382Z,21.70
2018-05-24T10:56:58.758Z,21.70
2018-05-24T11:01:59.786Z,21.80
2018-05-24T11:07:00.830Z,22.40
2018-05-24T11:12:02.595Z,22.70
2018-05-24T11:17:03.770Z,22.70
2018-05-24T11:22:05.532Z,22.90
2018-05-24T11:27:06.550Z,22.80
2018-05-24T11:32:07.637Z,22.70
2018-05-24T11:37:08.678Z,22.00
2018-05-24T11:42:09.587Z,21.90
2018-05-24T11:47:11.357Z,21.40
2018-05-24T11:52:13.160Z,21.20
2018-05-24T11:57:14.179Z,21.20
2018-05-24T12:02:15.182Z,21.30
2018-05-24T12:07:16.194Z,21.30
2018-05-24T12:12:17.198Z,21.60
2018-05-24T12:17:18.203Z,22.00
2018-05-24T12:22:19.219Z,22.50
2018-05-24T12:27:20.223Z,22.50
2018-05-24T12:32:21.231Z,22.70
2018-05-24T12:37:22.246Z,22.70
2018-05-24T12:42:23.986Z,22.50
2018-05-24T12:47:24.988Z,22.50
2018-05-24T12:52:26.015Z,22.50
2018-05-24T12:57:27.021Z,22.60
2018-05-24T13:02:28.050Z,22.90
2018-05-24T13:07:29.802Z,23.10
2018-05-24T13:12:30.819Z,23.00
2018-05-24T13:17:31.817Z,22.80
2018-05-24T13:22:32.821Z,23.20
2018-05-24T13:27:33.847Z,22.40
2018-05-24T13:32:34.861Z,22.50
2018-05-24T13:37:35.862Z,23.00
2018-05-24T13:42:36.871Z,23.10
2018-05-24T13:47:37.866Z,22.70
2018-05-24T13:52:38.929Z,22.50
2018-05-24T13:57:42.491Z,22.50
2018-05-24T14:02:44.890Z,22.50
2018-05-24T14:07:45.914Z,22.40
2018-05-24T14:12:47.665Z,22.30
2018-05-24T14:17:48.662Z,22.20
2018-05-24T14:22:50.420Z,22.20
2018-05-24T14:27:52.647Z,22.20
2018-05-24T14:32:53.645Z,22.40
2018-05-24T14:37:54.651Z,22.40
2018-05-24T14:42:56.393Z,22.50
2018-05-24T14:47:57.401Z,22.50
2018-05-24T14:52:58.401Z,22.60
2018-05-24T14:57:59.406Z,22.80
2018-05-24T15:03:00.434Z,23.10
2018-05-24T15:08:01.455Z,22.90
2018-05-24T15:13:02.478Z,23.10
2018-05-24T15:18:04.229Z,23.10
2018-05-24T15:23:05.243Z,23.00
2018-05-24T15:28:06.246Z,23.00
2018-05-24T15:33:07.258Z,22.80
2018-05-24T15:38:08.288Z,22.60
2018-05-24T15:43:10.071Z,22.60
2018-05-24T15:48:11.070Z,22.50
2018-05-24T15:53:12.065Z,22.40
2018-05-24T15:58:13.846Z,22.50
2018-05-24T16:03:14.891Z,22.50
2018-05-24T16:08:15.898Z,22.30
2018-05-24T16:13:18.382Z,22.10
2018-05-24T16:18:19.414Z,22.10
2018-05-24T16:23:21.166Z,22.00
2018-05-24T16:28:22.198Z,21.90
2018-05-24T16:33:23.220Z,22.10
2018-05-24T16:38:24.986Z,21.60
2018-05-24T16:43:26.730Z,21.60
2018-05-24T16:48:27.757Z,21.50
2018-05-24T16:53:28.780Z,21.70
2018-05-24T16:58:29.818Z,21.60
2018-05-24T17:03:30.842Z,21.70
2018-05-24T17:08:31.854Z,21.80
2018-05-24T17:13:33.626Z,21.80
2018-05-24T17:18:34.654Z,21.70
2018-05-24T17:23:35.686Z,21.90
2018-05-24T17:28:36.730Z,21.80
2018-05-24T17:33:37.732Z,21.90
2018-05-24T17:38:38.725Z,21.70
2018-05-24T17:43:40.463Z,21.60
2018-05-24T17:48:41.482Z,21.50
2018-05-24T17:53:42.490Z,21.60
2018-05-24T17:58:43.510Z,21.40
2018-05-24T18:03:44.521Z,21.30
2018-05-24T18:08:45.556Z,21.20
2018-05-24T18:13:46.562Z,21.10
2018-05-24T18:18:47.587Z,21.10
2018-05-24T18:23:49.967Z,21.00
2018-05-24T18:28:51.010Z,20.90
2018-05-24T18:33:52.022Z,20.90
2018-05-24T18:38:53.819Z,20.70
2018-05-24T18:43:54.833Z,20.70
2018-05-24T18:48:55.873Z,20.70
2018-05-24T18:53:56.893Z,20.70
2018-05-24T18:58:57.894Z,20.40
2018-05-24T19:03:58.907Z,20.40
2018-05-24T19:09:00.718Z,20.40
2018-05-24T19:14:01.756Z,20.30
2018-05-24T19:19:02.805Z,20.30
2018-05-24T19:24:03.810Z,20.20
2018-05-24T19:29:04.840Z,20.20
2018-05-24T19:34:05.857Z,20.10
2018-05-24T19:39:06.950Z,20.00
2018-05-24T19:44:08.002Z,19.90
2018-05-24T19:49:09.051Z,19.90
2018-05-24T19:54:10.086Z,19.80
2018-05-24T19:59:11.143Z,19.80
2018-05-24T20:04:12.193Z,19.70
2018-05-24T20:09:14.306Z,19.60
2018-05-24T20:14:15.363Z,19.60
2018-05-24T20:19:16.411Z,19.50
2018-05-24T20:24:17.496Z,19.20
2018-05-24T20:29:18.538Z,19.20
2018-05-24T20:34:19.593Z,19.20
2018-05-24T20:39:20.658Z,19.10
2018-05-24T20:44:22.423Z,19.00
2018-05-24T20:49:24.201Z,19.00
2018-05-24T20:54:25.957Z,19.00
2018-05-24T20:59:26.972Z,18.90
2018-05-24T21:04:28.018Z,18.90
2018-05-24T21:09:29.077Z,18.60
2018-05-24T21:14:30.086Z,18.50
2018-05-24T21:19:31.104Z,18.50
2018-05-24T21:24:32.114Z,18.50
2018-05-24T21:29:33.852Z,18.70
2018-05-24T21:34:34.869Z,18.60
2018-05-24T21:39:36.319Z,18.70
2018-05-24T21:44:37.358Z,18.80
2018-05-24T21:49:38.369Z,18.70
2018-05-24T21:54:39.401Z,18.60
2018-05-24T21:59:41.182Z,18.40
2018-05-24T22:04:42.939Z,18.30
2018-05-24T22:09:44.706Z,18.20
2018-05-24T22:14:45.707Z,18.30
2018-05-24T22:19:46.710Z,18.20
2018-05-24T22:24:47.762Z,18.20
2018-05-24T22:29:48.787Z,18.10
2018-05-24T22:34:49.803Z,18.00
2018-05-24T22:39:50.811Z,18.00
2018-05-24T22:44:51.826Z,17.90
2018-05-24T22:49:53.577Z,17.80
2018-05-24T22:54:55.010Z,17.70
2018-05-24T22:59:56.046Z,17.70
2018-05-24T23:04:57.870Z,17.70
2018-05-24T23:09:58.843Z,17.60
2018-05-24T23:14:59.870Z,17.70
2018-05-24T23:20:00.904Z,17.60
2018-05-24T23:25:01.955Z,17.40
2018-05-24T23:30:02.976Z,17.30
2018-05-24T23:35:04.003Z,17.30
2018-05-24T23:40:05.030Z,17.00
2018-05-24T23:45:06.074Z,16.80
2018-05-24T23:50:07.838Z,16.60
2018-05-24T23:55:08.854Z,16.50
